Avon, Indiana
Current Conditions -  °F | °C
As of 2:53 PM on Monday 24 Nov 2014 (Local Time) from KEYE Reporting Station
Overcast Overcast  
Wind Chill:   Ceiling: 2300
Heat Index:   Visibility: 10mi
Dew Point: -1°   Wind: 13mph
Humidity: 73%   Direction: 250°WSW
Pressure: 29.62"   Gusts: 24mph
Location:  39.76°N, 86.4°W
Report Text: KEYE 241953Z AUTO 25011G21KT 10SM OVC023 04/M01 A2962 RMK AO2 PK WND 24028/1935 SLP030 T00391006
Loading
Personal Weather Stations






























Interactive Weather Map New forecast layout! Learn more

10-Day Weather Forecast

Advertisements
Track Severe Weather on mobile